createdAt,value
2024-04-21T00:00:04.619Z,5.06
2024-04-21T00:05:06.476Z,5.15
2024-04-21T00:10:08.383Z,5.20
2024-04-21T00:15:10.178Z,5.03
2024-04-21T00:20:12.842Z,5.23
2024-04-21T00:25:14.772Z,4.99
2024-04-21T00:30:16.697Z,4.84
2024-04-21T00:35:18.470Z,4.69
2024-04-21T00:40:23.982Z,4.63
2024-04-21T00:45:31.869Z,4.67
2024-04-21T00:50:41.695Z,4.84
2024-04-21T00:55:44.042Z,4.90
2024-04-21T01:00:49.181Z,4.87
2024-04-21T01:05:53.316Z,4.89
2024-04-21T01:10:55.419Z,4.66
2024-04-21T01:15:57.403Z,4.43
2024-04-21T01:20:59.165Z,4.32
2024-04-21T01:26:01.029Z,4.38
2024-04-21T01:31:03.945Z,4.18
2024-04-21T01:36:05.888Z,4.13
2024-04-21T01:41:07.891Z,3.98
2024-04-21T01:46:09.758Z,4.02
2024-04-21T01:51:11.634Z,3.98
2024-04-21T01:56:13.434Z,4.02
2024-04-21T02:01:15.285Z,4.06
2024-04-21T02:06:17.116Z,4.14
2024-04-21T02:11:19.677Z,4.08
2024-04-21T02:16:21.556Z,4.14
2024-04-21T02:21:23.381Z,4.28
2024-04-21T02:26:25.172Z,4.02
2024-04-21T02:31:26.977Z,3.99
2024-04-21T02:36:28.784Z,3.84
2024-04-21T02:41:30.592Z,3.91
2024-04-21T02:46:32.393Z,3.79
2024-04-21T02:51:34.204Z,3.66
2024-04-21T02:56:35.981Z,3.54
2024-04-21T03:01:37.836Z,3.56
2024-04-21T03:06:39.633Z,3.39
2024-04-21T03:11:41.460Z,3.51
2024-04-21T03:16:43.780Z,3.28
2024-04-21T03:21:45.591Z,3.43
2024-04-21T03:26:47.463Z,3.36
2024-04-21T03:31:49.310Z,3.26
2024-04-21T03:36:51.118Z,3.48
2024-04-21T03:41:52.931Z,3.46
2024-04-21T03:46:54.949Z,3.46
2024-04-21T03:51:56.823Z,3.63
2024-04-21T03:57:01.522Z,3.62
2024-04-21T04:02:03.297Z,3.54
2024-04-21T04:07:05.261Z,3.65
2024-04-21T04:12:07.266Z,3.61
2024-04-21T04:17:09.112Z,3.63
2024-04-21T04:22:10.969Z,3.76
2024-04-21T04:27:12.753Z,3.72
2024-04-21T04:32:14.558Z,3.69
2024-04-21T04:37:16.428Z,3.77
2024-04-21T04:42:18.492Z,3.94
2024-04-21T04:47:20.295Z,3.62
2024-04-21T04:52:22.229Z,4.10
2024-04-21T04:57:24.043Z,4.31
2024-04-21T05:02:25.903Z,4.25
2024-04-21T05:07:27.768Z,4.84
2024-04-21T05:12:29.555Z,5.00
2024-04-21T05:17:31.409Z,5.19
2024-04-21T05:22:33.223Z,5.06
2024-04-21T05:27:35.195Z,4.74
2024-04-21T05:32:37.164Z,4.86
2024-04-21T05:37:38.970Z,5.02
2024-04-21T05:42:40.754Z,4.95
2024-04-21T05:47:43.056Z,4.74
2024-04-21T05:52:44.870Z,4.78
2024-04-21T05:57:46.690Z,4.78
2024-04-21T06:02:48.567Z,4.34
2024-04-21T06:07:50.360Z,4.83
2024-04-21T06:12:54.983Z,5.51
2024-04-21T06:17:56.948Z,6.19
2024-04-21T06:22:58.781Z,5.64
2024-04-21T06:28:00.734Z,5.96
2024-04-21T06:33:02.541Z,6.10
2024-04-21T06:38:04.590Z,6.15
2024-04-21T06:43:06.428Z,6.58
2024-04-21T06:48:08.501Z,8.10
2024-04-21T06:53:10.433Z,7.72
2024-04-21T06:58:12.354Z,7.43
2024-04-21T07:03:14.261Z,8.74
2024-04-21T07:08:16.048Z,10.09
2024-04-21T07:13:17.857Z,8.43
2024-04-21T07:18:19.836Z,8.01
2024-04-21T07:23:21.765Z,7.10
2024-04-21T07:28:23.622Z,7.79
2024-04-21T07:33:25.420Z,7.15
2024-04-21T07:38:27.266Z,6.09
2024-04-21T07:43:29.146Z,6.72
2024-04-21T07:48:31.053Z,6.82
2024-04-21T07:53:32.855Z,6.64
2024-04-21T07:58:34.610Z,11.57
2024-04-21T08:03:37.216Z,9.45
2024-04-21T08:08:39.135Z,7.52
2024-04-21T08:13:40.955Z,6.21
2024-04-21T08:18:42.823Z,6.99
2024-04-21T08:23:44.686Z,6.62
2024-04-21T08:28:46.455Z,8.27
2024-04-21T08:33:48.220Z,9.20
2024-04-21T08:38:50.011Z,8.09
2024-04-21T08:43:52.731Z,7.89
2024-04-21T08:48:54.982Z,7.40
2024-04-21T08:53:56.783Z,7.26
2024-04-21T08:58:59.684Z,10.08
2024-04-21T09:04:03.473Z,8.63
2024-04-21T09:09:05.359Z,7.36
2024-04-21T09:14:07.128Z,7.20
2024-04-21T09:19:08.924Z,7.79
2024-04-21T09:24:10.701Z,7.27
2024-04-21T09:29:12.469Z,7.67
2024-04-21T09:34:14.883Z,8.86
2024-04-21T09:39:16.992Z,8.13
2024-04-21T09:44:19.565Z,7.48
2024-04-21T09:49:23.421Z,7.85
2024-04-21T09:54:26.644Z,8.19
2024-04-21T09:59:31.752Z,9.24
2024-04-21T10:04:34.477Z,13.17
2024-04-21T10:09:36.606Z,11.42
2024-04-21T10:14:38.676Z,12.26
2024-04-21T10:19:40.512Z,11.04
2024-04-21T10:24:43.392Z,13.03
2024-04-21T10:29:45.202Z,15.13
2024-04-21T10:34:48.459Z,15.81
2024-04-21T10:40:09.009Z,15.97
2024-04-21T10:45:11.892Z,14.04
2024-04-21T10:50:14.188Z,14.06
2024-04-21T10:55:17.736Z,16.03
2024-04-21T11:00:19.687Z,16.80
2024-04-21T11:05:25.103Z,14.60
2024-04-21T11:10:28.189Z,10.27
2024-04-21T11:15:30.051Z,9.40
2024-04-21T11:20:32.241Z,9.39
2024-04-21T11:25:34.210Z,10.02
2024-04-21T11:30:36.049Z,10.62
2024-04-21T11:35:38.284Z,13.72
2024-04-21T11:40:40.519Z,12.33
2024-04-21T11:45:44.539Z,11.07
2024-04-21T11:50:46.445Z,9.95
2024-04-21T11:55:49.454Z,11.71
2024-04-21T12:00:51.770Z,11.92
2024-04-21T12:05:53.564Z,12.60
2024-04-21T12:10:55.398Z,10.52
2024-04-21T12:15:57.297Z,9.57
2024-04-21T12:20:59.201Z,10.86
2024-04-21T12:26:00.966Z,11.74
2024-04-21T12:31:02.839Z,9.89
2024-04-21T12:36:05.023Z,9.48
2024-04-21T12:41:10.038Z,11.54
2024-04-21T12:46:11.977Z,11.13
2024-04-21T12:51:13.893Z,12.36
2024-04-21T12:56:15.717Z,11.74
2024-04-21T13:01:17.675Z,12.92
2024-04-21T13:06:19.489Z,11.35
2024-04-21T13:11:21.420Z,10.30
2024-04-21T13:16:23.396Z,9.65
2024-04-21T13:21:25.397Z,9.64
2024-04-21T13:26:27.164Z,8.75
2024-04-21T13:31:29.087Z,8.82
2024-04-21T13:36:37.252Z,11.12
2024-04-21T13:41:41.371Z,12.19
2024-04-21T13:46:43.342Z,9.88
2024-04-21T13:51:45.192Z,8.96
2024-04-21T13:56:47.002Z,9.73
2024-04-21T14:01:48.882Z,8.99
2024-04-21T14:06:50.954Z,8.86
2024-04-21T14:11:52.782Z,8.68
2024-04-21T14:16:54.700Z,9.13
2024-04-21T14:21:56.529Z,8.81
2024-04-21T14:26:58.336Z,8.60
2024-04-21T14:32:00.112Z,8.23
2024-04-21T14:37:02.115Z,7.93
2024-04-21T14:42:04.072Z,8.36
2024-04-21T14:47:05.971Z,8.75
2024-04-21T14:52:07.871Z,8.86
2024-04-21T14:57:09.747Z,8.23
2024-04-21T15:02:11.648Z,8.72
2024-04-21T15:07:13.426Z,8.61
2024-04-21T15:12:15.972Z,8.21
2024-04-21T15:17:17.900Z,7.78
2024-04-21T15:22:21.062Z,8.07
2024-04-21T15:27:22.972Z,8.38
2024-04-21T15:32:24.805Z,8.14
2024-04-21T15:37:26.685Z,7.85
2024-04-21T15:42:28.555Z,7.84
2024-04-21T15:47:30.414Z,7.97
2024-04-21T15:52:32.651Z,8.60
2024-04-21T15:57:34.614Z,8.70
2024-04-21T16:02:37.912Z,8.68
2024-04-21T16:07:40.001Z,8.35
2024-04-21T16:12:41.884Z,8.00
2024-04-21T16:17:44.230Z,7.75
2024-04-21T16:22:47.315Z,7.60
2024-04-21T16:27:49.360Z,7.06
2024-04-21T16:32:51.166Z,7.36
2024-04-21T16:37:53.943Z,6.99
2024-04-21T16:42:55.970Z,6.81
2024-04-21T16:48:05.596Z,6.74
2024-04-21T16:53:07.807Z,6.69
2024-04-21T16:58:10.221Z,6.92
2024-04-21T17:03:12.392Z,6.87
2024-04-21T17:08:34.094Z,7.01
2024-04-21T17:13:36.003Z,7.10
2024-04-21T17:18:40.227Z,7.29
2024-04-21T17:23:42.121Z,7.40
2024-04-21T17:28:43.888Z,7.48
2024-04-21T17:33:45.765Z,7.41
2024-04-21T17:38:48.306Z,7.36
2024-04-21T17:43:50.091Z,7.12
2024-04-21T17:48:51.875Z,6.77
2024-04-21T17:53:53.772Z,6.38
2024-04-21T17:58:55.541Z,6.18
2024-04-21T18:03:58.293Z,6.00
2024-04-21T18:09:00.626Z,5.67
2024-04-21T18:14:02.453Z,5.41
2024-04-21T18:19:04.555Z,5.14
2024-04-21T18:24:06.436Z,5.24
2024-04-21T18:29:08.476Z,5.21
2024-04-21T18:34:10.284Z,5.15
2024-04-21T18:39:12.060Z,5.00
2024-04-21T18:44:13.822Z,5.03
2024-04-21T18:49:16.174Z,5.05
2024-04-21T18:54:18.129Z,5.11
2024-04-21T18:59:19.895Z,5.29
2024-04-21T19:04:21.721Z,5.28
2024-04-21T19:09:23.867Z,5.24
2024-04-21T19:14:25.966Z,5.35
2024-04-21T19:19:28.107Z,5.43
2024-04-21T19:24:30.237Z,5.47
2024-04-21T19:29:32.001Z,5.60
2024-04-21T19:34:33.894Z,5.32
2024-04-21T19:39:35.731Z,5.42
2024-04-21T19:44:37.622Z,5.18
2024-04-21T19:49:39.566Z,5.19
2024-04-21T19:54:41.397Z,5.05
2024-04-21T19:59:43.204Z,4.93
2024-04-21T20:04:45.052Z,4.67
2024-04-21T20:09:46.973Z,4.36
2024-04-21T20:15:10.830Z,4.35
2024-04-21T20:20:12.637Z,4.23
2024-04-21T20:25:14.468Z,4.26
2024-04-21T20:30:16.262Z,4.45
2024-04-21T20:35:18.761Z,4.65
2024-04-21T20:40:20.624Z,4.51
2024-04-21T20:45:22.432Z,4.38
2024-04-21T20:50:24.199Z,4.21
2024-04-21T20:55:26.103Z,4.13
2024-04-21T21:00:28.293Z,4.12
2024-04-21T21:05:30.092Z,4.05
2024-04-21T21:10:31.917Z,4.25
2024-04-21T21:15:34.330Z,4.45
2024-04-21T21:20:36.173Z,4.38
2024-04-21T21:25:38.232Z,4.63
2024-04-21T21:30:40.458Z,4.71
2024-04-21T21:35:42.438Z,4.58
2024-04-21T21:40:44.230Z,4.64
2024-04-21T21:45:46.036Z,4.77
2024-04-21T21:50:47.888Z,4.59
2024-04-21T21:55:49.901Z,4.65
2024-04-21T22:00:51.821Z,4.75
2024-04-21T22:05:54.358Z,4.68
2024-04-21T22:10:56.286Z,4.53
2024-04-21T22:15:58.126Z,4.39
2024-04-21T22:20:59.923Z,4.39
2024-04-21T22:26:01.703Z,4.20
2024-04-21T22:31:06.738Z,3.87
2024-04-21T22:36:08.858Z,3.99
2024-04-21T22:41:10.650Z,3.92
2024-04-21T22:46:12.479Z,3.69
2024-04-21T22:51:15.482Z,3.63
2024-04-21T22:56:23.416Z,3.56
2024-04-21T23:01:26.919Z,3.46
2024-04-21T23:06:28.761Z,3.27
2024-04-21T23:11:30.597Z,3.04
2024-04-21T23:16:32.433Z,2.80
2024-04-21T23:21:34.321Z,2.66
2024-04-21T23:26:36.532Z,2.72
2024-04-21T23:31:38.356Z,2.71
2024-04-21T23:36:40.151Z,2.67
2024-04-21T23:41:42.065Z,2.43
2024-04-21T23:46:43.870Z,2.61
2024-04-21T23:51:45.720Z,2.48
2024-04-21T23:56:47.527Z,2.25
